sensor_id;sensor_type;location;lat;lon;timestamp;temperature;humidity
6988;DHT22;3534;49.960;8.018;2023-02-26T00:00:11;4.80;99.90
6988;DHT22;3534;49.960;8.018;2023-02-26T00:02:39;4.70;99.90
6988;DHT22;3534;49.960;8.018;2023-02-26T00:05:08;4.40;99.90
6988;DHT22;3534;49.960;8.018;2023-02-26T00:07:35;4.40;99.90
6988;DHT22;3534;49.960;8.018;2023-02-26T00:10:01;4.40;99.90
6988;DHT22;3534;49.960;8.018;2023-02-26T00:12:29;4.40;99.90
6988;DHT22;3534;49.960;8.018;2023-02-26T00:14:56;4.30;99.90
6988;DHT22;3534;49.960;8.018;2023-02-26T00:17:38;4.10;99.90
6988;DHT22;3534;49.960;8.018;2023-02-26T00:20:10;4.00;99.90
6988;DHT22;3534;49.960;8.018;2023-02-26T00:22:37;4.00;99.90
6988;DHT22;3534;49.960;8.018;2023-02-26T00:25:05;4.10;99.90
6988;DHT22;3534;49.960;8.018;2023-02-26T00:27:32;4.10;99.90
6988;DHT22;3534;49.960;8.018;2023-02-26T00:29:59;4.20;99.90
6988;DHT22;3534;49.960;8.018;2023-02-26T00:32:26;4.30;99.90
6988;DHT22;3534;49.960;8.018;2023-02-26T00:34:53;4.40;99.90
6988;DHT22;3534;49.960;8.018;2023-02-26T00:37:28;4.30;99.90
6988;DHT22;3534;49.960;8.018;2023-02-26T00:40:07;4.30;99.90
6988;DHT22;3534;49.960;8.018;2023-02-26T00:42:36;4.30;99.90
6988;DHT22;3534;49.960;8.018;2023-02-26T00:45:04;4.40;99.90
6988;DHT22;3534;49.960;8.018;2023-02-26T00:47:36;4.30;99.90
6988;DHT22;3534;49.960;8.018;2023-02-26T00:50:13;4.30;99.90
6988;DHT22;3534;49.960;8.018;2023-02-26T00:52:49;4.40;99.90
6988;DHT22;3534;49.960;8.018;2023-02-26T00:55:18;4.50;99.90
6988;DHT22;3534;49.960;8.018;2023-02-26T00:57:45;4.40;99.90
6988;DHT22;3534;49.960;8.018;2023-02-26T01:00:13;4.50;99.90
6988;DHT22;3534;49.960;8.018;2023-02-26T01:02:40;4.60;99.90
6988;DHT22;3534;49.960;8.018;2023-02-26T01:05:08;4.60;99.90
6988;DHT22;3534;49.960;8.018;2023-02-26T01:07:41;4.60;99.90
6988;DHT22;3534;49.960;8.018;2023-02-26T01:10:12;4.50;99.90
6988;DHT22;3534;49.960;8.018;2023-02-26T01:12:39;4.40;99.90
6988;DHT22;3534;49.960;8.018;2023-02-26T01:15:07;4.30;99.90
6988;DHT22;3534;49.960;8.018;2023-02-26T01:17:39;4.30;99.90
6988;DHT22;3534;49.960;8.018;2023-02-26T01:20:12;4.10;99.90
6988;DHT22;3534;49.960;8.018;2023-02-26T01:22:44;4.10;99.90
6988;DHT22;3534;49.960;8.018;2023-02-26T01:25:17;4.20;99.90
6988;DHT22;3534;49.960;8.018;2023-02-26T01:27:47;4.30;99.90
6988;DHT22;3534;49.960;8.018;2023-02-26T01:30:14;4.40;99.90
6988;DHT22;3534;49.960;8.018;2023-02-26T01:32:43;4.50;99.90
6988;DHT22;3534;49.960;8.018;2023-02-26T01:35:20;4.60;99.90
6988;DHT22;3534;49.960;8.018;2023-02-26T01:37:54;4.60;99.90
6988;DHT22;3534;49.960;8.018;2023-02-26T01:40:43;4.70;99.90
6988;DHT22;3534;49.960;8.018;2023-02-26T01:43:15;4.80;99.90
6988;DHT22;3534;49.960;8.018;2023-02-26T01:45:56;4.90;99.90
6988;DHT22;3534;49.960;8.018;2023-02-26T01:48:35;4.90;99.90
6988;DHT22;3534;49.960;8.018;2023-02-26T01:51:01;4.90;99.90
6988;DHT22;3534;49.960;8.018;2023-02-26T01:53:28;5.00;99.90
6988;DHT22;3534;49.960;8.018;2023-02-26T01:55:58;5.00;99.90
6988;DHT22;3534;49.960;8.018;2023-02-26T01:58:28;5.10;99.90
6988;DHT22;3534;49.960;8.018;2023-02-26T02:00:56;5.10;99.90
6988;DHT22;3534;49.960;8.018;2023-02-26T02:03:25;5.20;99.90
6988;DHT22;3534;49.960;8.018;2023-02-26T02:13:00;5.30;99.90
6988;DHT22;3534;49.960;8.018;2023-02-26T02:15:37;5.20;99.90
6988;DHT22;3534;49.960;8.018;2023-02-26T02:18:12;5.20;99.90
6988;DHT22;3534;49.960;8.018;2023-02-26T02:20:58;5.20;99.90
6988;DHT22;3534;49.960;8.018;2023-02-26T02:23:35;5.20;99.90
6988;DHT22;3534;49.960;8.018;2023-02-26T02:29:24;5.00;99.90
6988;DHT22;3534;49.960;8.018;2023-02-26T02:31:56;5.00;99.90
6988;DHT22;3534;49.960;8.018;2023-02-26T02:34:28;5.00;99.90
6988;DHT22;3534;49.960;8.018;2023-02-26T02:36:58;5.00;99.90
6988;DHT22;3534;49.960;8.018;2023-02-26T02:39:28;5.00;99.90
6988;DHT22;3534;49.960;8.018;2023-02-26T02:41:58;5.00;99.90
6988;DHT22;3534;49.960;8.018;2023-02-26T02:44:28;5.00;99.90
6988;DHT22;3534;49.960;8.018;2023-02-26T02:46:59;5.00;99.90
6988;DHT22;3534;49.960;8.018;2023-02-26T02:49:30;5.10;99.90
6988;DHT22;3534;49.960;8.018;2023-02-26T02:52:02;5.10;99.90
6988;DHT22;3534;49.960;8.018;2023-02-26T02:54:34;5.10;99.90
6988;DHT22;3534;49.960;8.018;2023-02-26T02:57:05;5.10;99.90
6988;DHT22;3534;49.960;8.018;2023-02-26T02:59:36;5.20;99.90
6988;DHT22;3534;49.960;8.018;2023-02-26T03:02:10;5.20;99.90
6988;DHT22;3534;49.960;8.018;2023-02-26T03:04:37;5.20;99.90
6988;DHT22;3534;49.960;8.018;2023-02-26T03:07:05;5.20;99.90
6988;DHT22;3534;49.960;8.018;2023-02-26T03:09:32;5.20;99.90
6988;DHT22;3534;49.960;8.018;2023-02-26T03:11:58;5.20;99.90
6988;DHT22;3534;49.960;8.018;2023-02-26T03:14:25;5.10;99.90
6988;DHT22;3534;49.960;8.018;2023-02-26T03:17:10;5.10;99.90
6988;DHT22;3534;49.960;8.018;2023-02-26T03:19:44;5.00;99.90
6988;DHT22;3534;49.960;8.018;2023-02-26T03:22:21;5.10;99.90
6988;DHT22;3534;49.960;8.018;2023-02-26T03:24:51;5.10;99.90
6988;DHT22;3534;49.960;8.018;2023-02-26T03:27:23;5.10;99.90
6988;DHT22;3534;49.960;8.018;2023-02-26T03:29:54;5.10;99.90
6988;DHT22;3534;49.960;8.018;2023-02-26T03:32:26;5.10;99.90
6988;DHT22;3534;49.960;8.018;2023-02-26T03:35:00;5.00;99.90
6988;DHT22;3534;49.960;8.018;2023-02-26T03:37:32;4.90;99.90
6988;DHT22;3534;49.960;8.018;2023-02-26T03:40:03;4.90;99.90
6988;DHT22;3534;49.960;8.018;2023-02-26T03:42:35;4.90;99.90
6988;DHT22;3534;49.960;8.018;2023-02-26T03:45:06;4.90;99.90
6988;DHT22;3534;49.960;8.018;2023-02-26T03:47:38;4.90;99.90
6988;DHT22;3534;49.960;8.018;2023-02-26T03:50:09;4.90;99.90
6988;DHT22;3534;49.960;8.018;2023-02-26T03:52:40;4.90;99.90
6988;DHT22;3534;49.960;8.018;2023-02-26T03:55:11;5.00;99.90
6988;DHT22;3534;49.960;8.018;2023-02-26T03:57:40;5.00;99.90
6988;DHT22;3534;49.960;8.018;2023-02-26T04:00:09;5.10;99.90
6988;DHT22;3534;49.960;8.018;2023-02-26T04:02:42;5.10;99.90
6988;DHT22;3534;49.960;8.018;2023-02-26T04:05:13;5.10;99.90
6988;DHT22;3534;49.960;8.018;2023-02-26T04:07:41;5.10;99.90
6988;DHT22;3534;49.960;8.018;2023-02-26T04:10:10;5.10;99.90
6988;DHT22;3534;49.960;8.018;2023-02-26T04:12:39;5.10;99.90
6988;DHT22;3534;49.960;8.018;2023-02-26T04:15:07;5.10;99.90
6988;DHT22;3534;49.960;8.018;2023-02-26T04:17:34;5.00;99.90
6988;DHT22;3534;49.960;8.018;2023-02-26T04:20:02;5.00;99.90
6988;DHT22;3534;49.960;8.018;2023-02-26T04:22:32;4.90;99.90
6988;DHT22;3534;49.960;8.018;2023-02-26T04:24:59;4.90;99.90
6988;DHT22;3534;49.960;8.018;2023-02-26T04:27:25;4.90;99.90
6988;DHT22;3534;49.960;8.018;2023-02-26T04:29:52;4.90;99.90
6988;DHT22;3534;49.960;8.018;2023-02-26T04:32:19;4.90;99.90
6988;DHT22;3534;49.960;8.018;2023-02-26T04:34:45;4.80;99.90
6988;DHT22;3534;49.960;8.018;2023-02-26T04:37:13;4.90;99.90
6988;DHT22;3534;49.960;8.018;2023-02-26T04:39:40;4.90;99.90
6988;DHT22;3534;49.960;8.018;2023-02-26T04:42:07;4.90;99.90
6988;DHT22;3534;49.960;8.018;2023-02-26T04:44:33;4.80;99.90
6988;DHT22;3534;49.960;8.018;2023-02-26T04:47:00;4.80;99.90
6988;DHT22;3534;49.960;8.018;2023-02-26T04:49:26;4.80;99.90
6988;DHT22;3534;49.960;8.018;2023-02-26T04:51:53;4.70;99.90
6988;DHT22;3534;49.960;8.018;2023-02-26T04:54:21;4.70;99.90
6988;DHT22;3534;49.960;8.018;2023-02-26T04:56:48;4.70;99.90
6988;DHT22;3534;49.960;8.018;2023-02-26T04:59:14;4.70;99.90
6988;DHT22;3534;49.960;8.018;2023-02-26T05:01:41;4.70;99.90
6988;DHT22;3534;49.960;8.018;2023-02-26T05:04:08;4.60;99.90
6988;DHT22;3534;49.960;8.018;2023-02-26T05:06:35;4.60;99.90
6988;DHT22;3534;49.960;8.018;2023-02-26T05:09:02;4.60;99.90
6988;DHT22;3534;49.960;8.018;2023-02-26T05:11:30;4.50;99.90
6988;DHT22;3534;49.960;8.018;2023-02-26T05:13:57;4.60;99.90
6988;DHT22;3534;49.960;8.018;2023-02-26T05:16:24;4.60;99.90
6988;DHT22;3534;49.960;8.018;2023-02-26T05:18:50;4.60;99.90
6988;DHT22;3534;49.960;8.018;2023-02-26T05:21:17;4.50;99.90
6988;DHT22;3534;49.960;8.018;2023-02-26T05:23:44;4.50;99.90
6988;DHT22;3534;49.960;8.018;2023-02-26T05:26:10;4.50;99.90
6988;DHT22;3534;49.960;8.018;2023-02-26T05:28:38;4.40;99.90
6988;DHT22;3534;49.960;8.018;2023-02-26T05:31:05;4.40;99.90
6988;DHT22;3534;49.960;8.018;2023-02-26T05:33:32;4.50;99.90
6988;DHT22;3534;49.960;8.018;2023-02-26T05:35:58;4.40;99.90
6988;DHT22;3534;49.960;8.018;2023-02-26T05:38:25;4.30;99.90
6988;DHT22;3534;49.960;8.018;2023-02-26T05:40:55;4.30;99.90
6988;DHT22;3534;49.960;8.018;2023-02-26T05:43:23;4.30;99.90
6988;DHT22;3534;49.960;8.018;2023-02-26T05:45:51;4.30;99.90
6988;DHT22;3534;49.960;8.018;2023-02-26T05:48:18;4.30;99.90
6988;DHT22;3534;49.960;8.018;2023-02-26T05:50:46;4.20;99.90
6988;DHT22;3534;49.960;8.018;2023-02-26T05:53:12;4.30;99.90
6988;DHT22;3534;49.960;8.018;2023-02-26T05:55:39;4.20;99.90
6988;DHT22;3534;49.960;8.018;2023-02-26T05:58:06;4.10;99.90
6988;DHT22;3534;49.960;8.018;2023-02-26T06:00:32;4.10;99.90
6988;DHT22;3534;49.960;8.018;2023-02-26T06:03:00;4.10;99.90
6988;DHT22;3534;49.960;8.018;2023-02-26T06:05:27;4.20;99.90
6988;DHT22;3534;49.960;8.018;2023-02-26T06:07:54;4.20;99.90
6988;DHT22;3534;49.960;8.018;2023-02-26T06:10:20;4.20;99.90
6988;DHT22;3534;49.960;8.018;2023-02-26T06:12:47;4.20;99.90
6988;DHT22;3534;49.960;8.018;2023-02-26T06:15:14;4.20;99.90
6988;DHT22;3534;49.960;8.018;2023-02-26T06:17:40;4.20;99.90
6988;DHT22;3534;49.960;8.018;2023-02-26T06:20:10;4.30;99.90
6988;DHT22;3534;49.960;8.018;2023-02-26T06:22:37;4.30;99.90
6988;DHT22;3534;49.960;8.018;2023-02-26T06:25:04;4.30;99.90
6988;DHT22;3534;49.960;8.018;2023-02-26T06:27:31;4.20;99.90
6988;DHT22;3534;49.960;8.018;2023-02-26T06:29:58;4.20;99.90
6988;DHT22;3534;49.960;8.018;2023-02-26T06:32:24;4.30;99.90
6988;DHT22;3534;49.960;8.018;2023-02-26T06:34:51;4.30;99.90
6988;DHT22;3534;49.960;8.018;2023-02-26T06:37:19;4.30;99.90
6988;DHT22;3534;49.960;8.018;2023-02-26T06:39:46;4.20;99.90
6988;DHT22;3534;49.960;8.018;2023-02-26T06:42:12;4.30;99.90
6988;DHT22;3534;49.960;8.018;2023-02-26T06:44:39;4.20;99.90
6988;DHT22;3534;49.960;8.018;2023-02-26T06:47:06;4.20;99.90
6988;DHT22;3534;49.960;8.018;2023-02-26T06:49:33;4.20;99.90
6988;DHT22;3534;49.960;8.018;2023-02-26T06:51:59;4.20;99.90
6988;DHT22;3534;49.960;8.018;2023-02-26T06:54:27;4.20;99.90
6988;DHT22;3534;49.960;8.018;2023-02-26T06:56:54;4.20;99.90
6988;DHT22;3534;49.960;8.018;2023-02-26T06:59:22;4.20;99.90
6988;DHT22;3534;49.960;8.018;2023-02-26T07:01:48;4.20;99.90
6988;DHT22;3534;49.960;8.018;2023-02-26T07:04:15;4.30;99.90
6988;DHT22;3534;49.960;8.018;2023-02-26T07:06:42;4.20;99.90
6988;DHT22;3534;49.960;8.018;2023-02-26T07:09:08;4.20;99.90
6988;DHT22;3534;49.960;8.018;2023-02-26T07:11:36;4.30;99.90
6988;DHT22;3534;49.960;8.018;2023-02-26T07:14:03;4.30;99.90
6988;DHT22;3534;49.960;8.018;2023-02-26T07:16:30;4.30;99.90
6988;DHT22;3534;49.960;8.018;2023-02-26T07:18:56;4.30;99.90
6988;DHT22;3534;49.960;8.018;2023-02-26T07:21:23;4.30;99.90
6988;DHT22;3534;49.960;8.018;2023-02-26T07:23:50;4.40;99.90
6988;DHT22;3534;49.960;8.018;2023-02-26T07:26:17;4.40;99.90
6988;DHT22;3534;49.960;8.018;2023-02-26T07:28:45;4.40;99.90
6988;DHT22;3534;49.960;8.018;2023-02-26T07:31:11;4.60;99.90
6988;DHT22;3534;49.960;8.018;2023-02-26T07:33:38;4.60;99.90
6988;DHT22;3534;49.960;8.018;2023-02-26T07:36:05;4.60;99.90
6988;DHT22;3534;49.960;8.018;2023-02-26T07:38:32;4.60;99.90
6988;DHT22;3534;49.960;8.018;2023-02-26T07:40:59;4.50;99.90
6988;DHT22;3534;49.960;8.018;2023-02-26T07:43:25;4.60;99.90
6988;DHT22;3534;49.960;8.018;2023-02-26T07:45:53;4.70;99.90
6988;DHT22;3534;49.960;8.018;2023-02-26T07:48:20;4.60;99.90
6988;DHT22;3534;49.960;8.018;2023-02-26T07:50:50;4.50;99.90
6988;DHT22;3534;49.960;8.018;2023-02-26T07:53:17;4.50;99.90
6988;DHT22;3534;49.960;8.018;2023-02-26T07:55:44;4.30;99.90
6988;DHT22;3534;49.960;8.018;2023-02-26T07:58:10;4.20;99.90
6988;DHT22;3534;49.960;8.018;2023-02-26T08:00:37;4.10;99.90
6988;DHT22;3534;49.960;8.018;2023-02-26T08:03:05;4.10;99.90
6988;DHT22;3534;49.960;8.018;2023-02-26T08:05:32;4.10;99.90
6988;DHT22;3534;49.960;8.018;2023-02-26T08:07:59;4.10;99.90
6988;DHT22;3534;49.960;8.018;2023-02-26T08:10:26;4.10;99.90
6988;DHT22;3534;49.960;8.018;2023-02-26T08:12:53;4.10;99.90
6988;DHT22;3534;49.960;8.018;2023-02-26T08:15:20;4.00;99.90
6988;DHT22;3534;49.960;8.018;2023-02-26T08:17:47;4.00;99.90
6988;DHT22;3534;49.960;8.018;2023-02-26T08:20:15;4.00;99.90
6988;DHT22;3534;49.960;8.018;2023-02-26T08:22:42;4.00;99.90
6988;DHT22;3534;49.960;8.018;2023-02-26T08:25:09;4.00;99.90
6988;DHT22;3534;49.960;8.018;2023-02-26T08:27:37;4.10;99.90
6988;DHT22;3534;49.960;8.018;2023-02-26T08:30:05;4.00;99.90
6988;DHT22;3534;49.960;8.018;2023-02-26T08:32:32;4.10;99.90
6988;DHT22;3534;49.960;8.018;2023-02-26T08:34:59;4.10;99.90
6988;DHT22;3534;49.960;8.018;2023-02-26T08:37:27;4.10;99.90
6988;DHT22;3534;49.960;8.018;2023-02-26T08:39:54;4.20;99.90
6988;DHT22;3534;49.960;8.018;2023-02-26T08:42:21;4.10;99.90
6988;DHT22;3534;49.960;8.018;2023-02-26T08:44:47;4.20;99.90
6988;DHT22;3534;49.960;8.018;2023-02-26T08:47:14;4.30;99.90
6988;DHT22;3534;49.960;8.018;2023-02-26T08:49:41;4.40;99.90
6988;DHT22;3534;49.960;8.018;2023-02-26T08:52:08;4.30;99.90
6988;DHT22;3534;49.960;8.018;2023-02-26T08:54:36;4.40;99.90
6988;DHT22;3534;49.960;8.018;2023-02-26T08:57:03;4.40;99.90
6988;DHT22;3534;49.960;8.018;2023-02-26T08:59:29;4.50;99.90
6988;DHT22;3534;49.960;8.018;2023-02-26T09:01:56;4.50;99.90
6988;DHT22;3534;49.960;8.018;2023-02-26T09:04:23;4.50;99.90
6988;DHT22;3534;49.960;8.018;2023-02-26T09:06:51;4.60;99.90
6988;DHT22;3534;49.960;8.018;2023-02-26T09:09:18;4.70;99.90
6988;DHT22;3534;49.960;8.018;2023-02-26T09:11:46;4.80;99.90
6988;DHT22;3534;49.960;8.018;2023-02-26T09:14:13;4.80;99.90
6988;DHT22;3534;49.960;8.018;2023-02-26T09:16:40;4.80;99.90
6988;DHT22;3534;49.960;8.018;2023-02-26T09:19:07;4.80;99.90
6988;DHT22;3534;49.960;8.018;2023-02-26T09:21:34;5.00;99.90
6988;DHT22;3534;49.960;8.018;2023-02-26T09:24:01;5.10;99.90
6988;DHT22;3534;49.960;8.018;2023-02-26T09:26:27;5.00;99.90
6988;DHT22;3534;49.960;8.018;2023-02-26T09:28:55;5.00;99.90
6988;DHT22;3534;49.960;8.018;2023-02-26T09:31:22;4.90;99.90
6988;DHT22;3534;49.960;8.018;2023-02-26T09:33:49;4.90;99.90
6988;DHT22;3534;49.960;8.018;2023-02-26T09:36:16;5.00;99.90
6988;DHT22;3534;49.960;8.018;2023-02-26T09:38:42;5.10;99.90
6988;DHT22;3534;49.960;8.018;2023-02-26T09:41:16;5.10;99.90
6988;DHT22;3534;49.960;8.018;2023-02-26T09:43:58;5.10;99.90
6988;DHT22;3534;49.960;8.018;2023-02-26T09:46:36;5.30;99.90
6988;DHT22;3534;49.960;8.018;2023-02-26T09:49:20;5.30;99.90
6988;DHT22;3534;49.960;8.018;2023-02-26T09:51:51;5.30;99.90
6988;DHT22;3534;49.960;8.018;2023-02-26T09:54:21;5.40;99.90
6988;DHT22;3534;49.960;8.018;2023-02-26T09:56:49;5.50;99.90
6988;DHT22;3534;49.960;8.018;2023-02-26T09:59:18;5.50;99.90
6988;DHT22;3534;49.960;8.018;2023-02-26T10:01:51;5.50;99.90
6988;DHT22;3534;49.960;8.018;2023-02-26T10:04:38;5.50;99.90
6988;DHT22;3534;49.960;8.018;2023-02-26T10:07:15;5.60;99.90
6988;DHT22;3534;49.960;8.018;2023-02-26T10:09:56;5.70;99.90
6988;DHT22;3534;49.960;8.018;2023-02-26T10:12:28;5.70;99.90
6988;DHT22;3534;49.960;8.018;2023-02-26T10:15:00;5.70;99.90
6988;DHT22;3534;49.960;8.018;2023-02-26T10:17:33;5.80;99.90
6988;DHT22;3534;49.960;8.018;2023-02-26T10:20:03;5.70;99.90
6988;DHT22;3534;49.960;8.018;2023-02-26T10:22:35;5.90;99.90
6988;DHT22;3534;49.960;8.018;2023-02-26T10:25:06;5.90;99.90
6988;DHT22;3534;49.960;8.018;2023-02-26T10:27:42;6.10;99.90
6988;DHT22;3534;49.960;8.018;2023-02-26T10:30:21;6.00;99.90
6988;DHT22;3534;49.960;8.018;2023-02-26T10:32:59;6.00;99.90
6988;DHT22;3534;49.960;8.018;2023-02-26T10:35:28;5.90;99.90
6988;DHT22;3534;49.960;8.018;2023-02-26T10:37:59;5.90;99.90
6988;DHT22;3534;49.960;8.018;2023-02-26T10:40:31;6.00;99.90
6988;DHT22;3534;49.960;8.018;2023-02-26T10:43:04;6.00;99.90
6988;DHT22;3534;49.960;8.018;2023-02-26T10:45:46;6.00;99.90
6988;DHT22;3534;49.960;8.018;2023-02-26T10:48:25;6.00;99.90
6988;DHT22;3534;49.960;8.018;2023-02-26T10:50:56;6.10;99.90
6988;DHT22;3534;49.960;8.018;2023-02-26T10:53:24;6.20;99.90
6988;DHT22;3534;49.960;8.018;2023-02-26T10:55:54;6.20;99.90
6988;DHT22;3534;49.960;8.018;2023-02-26T10:58:23;6.30;99.90
6988;DHT22;3534;49.960;8.018;2023-02-26T11:00:54;6.40;99.90
6988;DHT22;3534;49.960;8.018;2023-02-26T11:03:30;6.50;99.90
6988;DHT22;3534;49.960;8.018;2023-02-26T11:05:58;6.50;99.90
6988;DHT22;3534;49.960;8.018;2023-02-26T11:08:27;6.60;99.90
6988;DHT22;3534;49.960;8.018;2023-02-26T11:10:57;6.70;99.90
6988;DHT22;3534;49.960;8.018;2023-02-26T11:13:26;6.70;99.90
6988;DHT22;3534;49.960;8.018;2023-02-26T11:15:57;6.80;99.90
6988;DHT22;3534;49.960;8.018;2023-02-26T11:18:26;6.70;99.90
6988;DHT22;3534;49.960;8.018;2023-02-26T11:20:56;6.60;99.90
6988;DHT22;3534;49.960;8.018;2023-02-26T11:23:26;6.60;99.90
6988;DHT22;3534;49.960;8.018;2023-02-26T11:25:56;6.60;99.90
6988;DHT22;3534;49.960;8.018;2023-02-26T11:28:30;6.70;99.90
6988;DHT22;3534;49.960;8.018;2023-02-26T11:31:04;6.70;99.90
6988;DHT22;3534;49.960;8.018;2023-02-26T11:33:35;6.70;99.90
6988;DHT22;3534;49.960;8.018;2023-02-26T11:36:07;6.90;99.90
6988;DHT22;3534;49.960;8.018;2023-02-26T11:38:35;6.90;99.90
6988;DHT22;3534;49.960;8.018;2023-02-26T11:41:04;7.00;99.90
6988;DHT22;3534;49.960;8.018;2023-02-26T11:43:36;7.00;99.90
6988;DHT22;3534;49.960;8.018;2023-02-26T11:46:08;7.10;99.90
6988;DHT22;3534;49.960;8.018;2023-02-26T11:48:39;7.10;99.90
6988;DHT22;3534;49.960;8.018;2023-02-26T11:51:10;7.10;99.90
6988;DHT22;3534;49.960;8.018;2023-02-26T11:53:42;7.00;99.90
6988;DHT22;3534;49.960;8.018;2023-02-26T11:56:11;6.90;99.90
6988;DHT22;3534;49.960;8.018;2023-02-26T11:58:43;7.00;99.90
6988;DHT22;3534;49.960;8.018;2023-02-26T12:01:13;7.00;99.90
6988;DHT22;3534;49.960;8.018;2023-02-26T12:03:45;7.00;99.90
6988;DHT22;3534;49.960;8.018;2023-02-26T12:06:16;6.90;99.90
6988;DHT22;3534;49.960;8.018;2023-02-26T12:08:43;7.00;99.90
6988;DHT22;3534;49.960;8.018;2023-02-26T12:14:22;7.00;99.90
6988;DHT22;3534;49.960;8.018;2023-02-26T12:17:03;7.00;99.90
6988;DHT22;3534;49.960;8.018;2023-02-26T12:19:39;7.00;99.90
6988;DHT22;3534;49.960;8.018;2023-02-26T12:25:19;7.10;99.90
6988;DHT22;3534;49.960;8.018;2023-02-26T12:28:06;7.00;99.90
6988;DHT22;3534;49.960;8.018;2023-02-26T12:30:52;7.10;99.90
6988;DHT22;3534;49.960;8.018;2023-02-26T12:33:36;7.20;99.90
6988;DHT22;3534;49.960;8.018;2023-02-26T12:36:16;7.20;99.90
6988;DHT22;3534;49.960;8.018;2023-02-26T12:38:51;7.40;99.90
6988;DHT22;3534;49.960;8.018;2023-02-26T12:41:42;7.70;99.90
6988;DHT22;3534;49.960;8.018;2023-02-26T12:44:19;8.00;99.90
6988;DHT22;3534;49.960;8.018;2023-02-26T12:47:05;8.20;99.90
6988;DHT22;3534;49.960;8.018;2023-02-26T12:49:58;8.30;99.90
6988;DHT22;3534;49.960;8.018;2023-02-26T12:52:55;8.50;99.90
6988;DHT22;3534;49.960;8.018;2023-02-26T12:55:33;8.70;99.90
6988;DHT22;3534;49.960;8.018;2023-02-26T12:58:14;8.80;99.90
6988;DHT22;3534;49.960;8.018;2023-02-26T13:01:00;8.90;99.90
6988;DHT22;3534;49.960;8.018;2023-02-26T13:03:42;8.90;99.90
6988;DHT22;3534;49.960;8.018;2023-02-26T13:06:34;8.90;99.90
6988;DHT22;3534;49.960;8.018;2023-02-26T13:09:12;8.90;99.90
6988;DHT22;3534;49.960;8.018;2023-02-26T13:11:49;8.90;99.90
6988;DHT22;3534;49.960;8.018;2023-02-26T13:14:29;9.00;99.90
6988;DHT22;3534;49.960;8.018;2023-02-26T13:17:03;9.10;99.90
6988;DHT22;3534;49.960;8.018;2023-02-26T13:19:36;9.00;99.90
6988;DHT22;3534;49.960;8.018;2023-02-26T13:22:14;8.90;99.90
6988;DHT22;3534;49.960;8.018;2023-02-26T13:24:46;9.00;99.90
6988;DHT22;3534;49.960;8.018;2023-02-26T13:27:15;9.00;99.90
6988;DHT22;3534;49.960;8.018;2023-02-26T13:29:46;8.80;99.90
6988;DHT22;3534;49.960;8.018;2023-02-26T13:32:15;8.80;99.90
6988;DHT22;3534;49.960;8.018;2023-02-26T13:34:47;8.80;99.90
6988;DHT22;3534;49.960;8.018;2023-02-26T13:37:22;8.70;99.90
6988;DHT22;3534;49.960;8.018;2023-02-26T13:40:00;8.70;99.90
6988;DHT22;3534;49.960;8.018;2023-02-26T13:42:36;8.70;99.90
6988;DHT22;3534;49.960;8.018;2023-02-26T13:45:22;8.60;99.90
6988;DHT22;3534;49.960;8.018;2023-02-26T13:47:59;8.60;99.90
6988;DHT22;3534;49.960;8.018;2023-02-26T13:50:33;8.50;99.90
6988;DHT22;3534;49.960;8.018;2023-02-26T13:56:19;8.50;99.90
6988;DHT22;3534;49.960;8.018;2023-02-26T13:58:51;8.50;99.90
6988;DHT22;3534;49.960;8.018;2023-02-26T14:01:19;8.50;99.90
6988;DHT22;3534;49.960;8.018;2023-02-26T14:04:03;8.40;99.90
6988;DHT22;3534;49.960;8.018;2023-02-26T14:06:38;8.50;99.90
6988;DHT22;3534;49.960;8.018;2023-02-26T14:12:32;8.30;99.90
6988;DHT22;3534;49.960;8.018;2023-02-26T14:15:39;8.20;99.90
6988;DHT22;3534;49.960;8.018;2023-02-26T14:18:19;8.10;99.90
6988;DHT22;3534;49.960;8.018;2023-02-26T14:20:46;8.00;99.90
6988;DHT22;3534;49.960;8.018;2023-02-26T14:23:33;8.00;99.90
6988;DHT22;3534;49.960;8.018;2023-02-26T14:26:10;7.90;99.90
6988;DHT22;3534;49.960;8.018;2023-02-26T14:28:54;8.00;99.90
6988;DHT22;3534;49.960;8.018;2023-02-26T14:31:23;7.90;99.90
6988;DHT22;3534;49.960;8.018;2023-02-26T14:34:06;8.00;99.90
6988;DHT22;3534;49.960;8.018;2023-02-26T14:36:37;7.90;99.90
6988;DHT22;3534;49.960;8.018;2023-02-26T14:39:09;7.90;99.90
6988;DHT22;3534;49.960;8.018;2023-02-26T14:41:39;7.90;99.90
6988;DHT22;3534;49.960;8.018;2023-02-26T14:44:12;8.00;99.90
6988;DHT22;3534;49.960;8.018;2023-02-26T14:46:40;8.00;99.90
6988;DHT22;3534;49.960;8.018;2023-02-26T14:49:14;8.10;99.90
6988;DHT22;3534;49.960;8.018;2023-02-26T14:51:49;8.50;99.90
6988;DHT22;3534;49.960;8.018;2023-02-26T14:54:27;8.60;99.90
6988;DHT22;3534;49.960;8.018;2023-02-26T14:57:02;8.60;99.90
6988;DHT22;3534;49.960;8.018;2023-02-26T14:59:41;8.70;99.90
6988;DHT22;3534;49.960;8.018;2023-02-26T15:02:29;9.00;99.90
6988;DHT22;3534;49.960;8.018;2023-02-26T15:08:13;9.40;99.90
6988;DHT22;3534;49.960;8.018;2023-02-26T15:10:53;10.00;99.90
6988;DHT22;3534;49.960;8.018;2023-02-26T15:13:52;10.30;99.90
6988;DHT22;3534;49.960;8.018;2023-02-26T15:16:33;10.60;99.90
6988;DHT22;3534;49.960;8.018;2023-02-26T15:19:17;10.80;99.90
6988;DHT22;3534;49.960;8.018;2023-02-26T15:21:58;11.10;99.90
6988;DHT22;3534;49.960;8.018;2023-02-26T15:24:28;11.10;99.90
6988;DHT22;3534;49.960;8.018;2023-02-26T15:26:59;11.00;99.90
6988;DHT22;3534;49.960;8.018;2023-02-26T15:29:28;10.80;99.90
6988;DHT22;3534;49.960;8.018;2023-02-26T15:31:58;10.70;99.90
6988;DHT22;3534;49.960;8.018;2023-02-26T15:34:28;10.50;99.90
6988;DHT22;3534;49.960;8.018;2023-02-26T15:36:56;10.10;99.90
6988;DHT22;3534;49.960;8.018;2023-02-26T15:39:24;9.80;99.90
6988;DHT22;3534;49.960;8.018;2023-02-26T15:41:53;9.60;99.90
6988;DHT22;3534;49.960;8.018;2023-02-26T15:44:23;9.50;99.90
6988;DHT22;3534;49.960;8.018;2023-02-26T15:46:55;9.40;99.90
6988;DHT22;3534;49.960;8.018;2023-02-26T15:49:26;9.30;99.90
6988;DHT22;3534;49.960;8.018;2023-02-26T15:51:55;9.20;99.90
6988;DHT22;3534;49.960;8.018;2023-02-26T15:54:24;9.00;99.90
6988;DHT22;3534;49.960;8.018;2023-02-26T15:56:53;9.00;99.90
6988;DHT22;3534;49.960;8.018;2023-02-26T15:59:25;8.90;99.90
6988;DHT22;3534;49.960;8.018;2023-02-26T16:01:54;8.70;99.90
6988;DHT22;3534;49.960;8.018;2023-02-26T16:04:22;8.70;99.90
6988;DHT22;3534;49.960;8.018;2023-02-26T16:06:53;8.70;99.90
6988;DHT22;3534;49.960;8.018;2023-02-26T16:09:25;8.80;99.90
6988;DHT22;3534;49.960;8.018;2023-02-26T16:11:54;8.80;99.90
6988;DHT22;3534;49.960;8.018;2023-02-26T16:14:24;8.80;99.90
6988;DHT22;3534;49.960;8.018;2023-02-26T16:16:53;8.50;99.90
6988;DHT22;3534;49.960;8.018;2023-02-26T16:19:29;8.40;99.90
6988;DHT22;3534;49.960;8.018;2023-02-26T16:22:01;8.40;99.90
6988;DHT22;3534;49.960;8.018;2023-02-26T16:24:30;8.40;99.90
6988;DHT22;3534;49.960;8.018;2023-02-26T16:27:01;8.40;99.90
6988;DHT22;3534;49.960;8.018;2023-02-26T16:29:31;8.40;99.90
6988;DHT22;3534;49.960;8.018;2023-02-26T16:32:01;8.50;99.90
6988;DHT22;3534;49.960;8.018;2023-02-26T16:34:33;8.30;99.90
6988;DHT22;3534;49.960;8.018;2023-02-26T16:37:21;8.30;99.90
6988;DHT22;3534;49.960;8.018;2023-02-26T16:39:51;8.20;99.90
6988;DHT22;3534;49.960;8.018;2023-02-26T16:42:30;8.10;99.90
6988;DHT22;3534;49.960;8.018;2023-02-26T16:45:02;8.00;99.90
6988;DHT22;3534;49.960;8.018;2023-02-26T16:47:40;7.80;99.90
6988;DHT22;3534;49.960;8.018;2023-02-26T16:50:15;7.80;99.90
6988;DHT22;3534;49.960;8.018;2023-02-26T16:52:46;7.70;99.90
6988;DHT22;3534;49.960;8.018;2023-02-26T16:55:13;7.70;99.90
6988;DHT22;3534;49.960;8.018;2023-02-26T16:57:43;7.70;99.90
6988;DHT22;3534;49.960;8.018;2023-02-26T17:00:15;7.50;99.90
6988;DHT22;3534;49.960;8.018;2023-02-26T17:02:46;7.40;99.90
6988;DHT22;3534;49.960;8.018;2023-02-26T17:05:21;7.30;99.90
6988;DHT22;3534;49.960;8.018;2023-02-26T17:07:54;7.30;99.90